Diba, Oman

1:57 PM GST on August 20, 2014 (GMT +0400)
Ras Al Khaimah International | Change Station
CLOSE
Current Station
Airport
Location: Ras Al Khaimah,
Elevation: 102 ft
Nearby Weather Stations

Elev 102 ft 25.61 °N, 55.94 °E | Updated 57 minutes ago

Haze
Haze
104 °F
Feels Like 110 °F
N
10
Wind Variable Wind from NW

Today
High -- | Low -- °F
--% Chance of Precip.
Yesterday
High -- | Low -- °F
Precip. -- in
5:50 AM 6:46 PM
Waning Crescent, 23% visible
Pressure 29.68 in
Visibility 3.1 miles
Clouds
Heat Index 110 °F
Dew Point 68 °F
Humidity 31%
Rainfall 0.00 in
Snow Depth Not available.
UV Not available.
Pollen Not available.
Air Quality Not available.
Flu Activity Not available.
METAR OMRK 200900Z 31009KT 5000 HZ NSC 40/20 Q1005 (A2970)

More Conditions Fewer Conditions

Pressure 29.68 in
Visibility 3.1 miles
Clouds
Heat Index 110 °F
Dew Point 68 °F
Humidity 31%
Rainfall 0.00 in
Snow Depth Not available.
UV Not available.
Pollen Not available.
Air Quality Not available.
Flu Activity Not available.
METAR OMRK 200900Z 31009KT 5000 HZ NSC 40/20 Q1005 (A2970)

More Conditions Fewer Conditions

10-Day Weather Forecast

Almanac

Astronomy

Aug. 20, 2014 Rise Set
Actual Time 5:50 AM GST 6:46 PM GST
Civil Twilight 5:26 AM GST 7:10 PM GST
Nautical Twilight 4:58 AM GST 7:38 PM GST
Astronomical Twilight 4:29 AM GST 8:06 PM GST
Moon 1:20 AM GST 3:01 PM GST
Length of Visible Light 13h 43m
Length of Day
12h 56m
Tomorrow will be 1m 21s shorter.
Waning Crescent, 23% of the Moon is Illuminated
Today
Waning Crescent
Aug 25
New
Sep 2
First Quarter
Sep 8
Full
Sep 15
Last Quarter

Yesterday's Extremes

Country Highs Country Lows

Community

WunderPhotos

Upload Photos

1,745,604 photos uploaded!

Nearby

Snow Depth

Not available.

Earthquake Activity

City Distance Mag. Time & Date
No recent earthquake activity has been reported nearby.
Minimum magnitude displayed is 2.5.

Coastal Water Temperatures

Place Temperature
No Stations Reporting

Nearby Weather Stations